createdAt,value
2023-04-05T00:02:46.344Z,21.43
2023-04-05T00:07:54.389Z,21.39
2023-04-05T00:12:57.617Z,21.35
2023-04-05T00:18:03.727Z,21.32
2023-04-05T00:23:10.415Z,21.27
2023-04-05T00:28:13.712Z,21.25
2023-04-05T00:33:16.473Z,21.20
2023-04-05T00:38:20.849Z,21.18
2023-04-05T00:43:23.588Z,21.12
2023-04-05T00:48:26.923Z,21.10
2023-04-05T00:53:32.021Z,21.06
2023-04-05T00:58:34.887Z,21.05
2023-04-05T01:03:39.883Z,21.01
2023-04-05T01:08:53.377Z,20.97
2023-04-05T01:13:59.697Z,20.93
2023-04-05T01:19:03.956Z,20.91
2023-04-05T01:24:21.037Z,20.86
2023-04-05T01:29:47.031Z,20.82
2023-04-05T01:34:55.061Z,20.81
2023-04-05T01:39:59.618Z,20.80
2023-04-05T01:45:03.899Z,20.76
2023-04-05T01:50:09.375Z,20.74
2023-04-05T01:55:12.174Z,20.72
2023-04-05T02:00:17.002Z,20.68
2023-04-05T02:05:21.514Z,20.65
2023-04-05T02:10:25.398Z,20.65
2023-04-05T02:15:32.654Z,20.62
2023-04-05T02:20:35.552Z,20.61
2023-04-05T02:25:38.391Z,20.57
2023-04-05T02:30:42.784Z,20.55
2023-04-05T02:35:48.976Z,20.56
2023-04-05T02:40:54.076Z,20.55
2023-04-05T02:45:58.227Z,20.54
2023-04-05T02:51:01.517Z,20.49
2023-04-05T02:56:04.314Z,20.50
2023-04-05T03:01:12.037Z,20.49
2023-04-05T03:06:15.378Z,20.46
2023-04-05T03:11:22.541Z,20.43
2023-04-05T03:16:31.956Z,20.43
2023-04-05T03:21:40.862Z,20.40
2023-04-05T03:26:55.455Z,20.42
2023-04-05T03:32:01.965Z,20.40
2023-04-05T03:37:04.945Z,20.37
2023-04-05T03:42:20.762Z,20.36
2023-04-05T03:47:24.973Z,20.33
2023-04-05T03:52:29.030Z,20.32
2023-04-05T03:57:32.830Z,20.32
2023-04-05T04:02:46.865Z,20.29
2023-04-05T04:07:54.538Z,20.32
2023-04-05T04:12:58.926Z,20.28
2023-04-05T04:18:07.215Z,20.27
2023-04-05T04:23:27.301Z,20.27
2023-04-05T04:28:48.715Z,20.27
2023-04-05T04:34:22.233Z,20.26
2023-04-05T04:39:45.078Z,20.22
2023-04-05T04:45:07.531Z,20.22
2023-04-05T04:50:37.887Z,20.22
2023-04-05T04:55:42.335Z,20.20
2023-04-05T05:00:45.634Z,20.18
2023-04-05T05:05:51.213Z,20.20
2023-04-05T05:10:58.768Z,20.20
2023-04-05T05:16:02.377Z,20.16
2023-04-05T05:21:06.687Z,20.16
2023-04-05T05:26:09.674Z,20.15
2023-04-05T05:31:14.203Z,20.15
2023-04-05T05:36:20.223Z,20.15
2023-04-05T05:41:23.108Z,20.14
2023-04-05T05:46:26.796Z,20.12
2023-04-05T05:51:32.507Z,20.13
2023-04-05T05:56:35.403Z,20.12
2023-04-05T06:01:38.203Z,20.12
2023-04-05T06:06:43.710Z,20.14
2023-04-05T06:11:55.954Z,20.11
2023-04-05T06:16:59.578Z,20.15
2023-04-05T06:22:03.769Z,20.16
2023-04-05T06:27:06.579Z,20.16
2023-04-05T06:32:09.407Z,20.18
2023-04-05T06:37:13.670Z,20.21
2023-04-05T06:42:16.625Z,20.21
2023-04-05T06:47:27.892Z,20.19
2023-04-05T06:52:32.131Z,20.22
2023-04-05T06:57:35.276Z,20.23
2023-04-05T07:02:38.300Z,20.27
2023-04-05T07:07:44.385Z,16.93
2023-04-05T07:12:47.271Z,15.97
2023-04-05T07:17:50.336Z,18.23
2023-04-05T07:22:54.492Z,19.19
2023-04-05T07:27:57.628Z,19.62
2023-04-05T07:33:00.490Z,19.89
2023-04-05T07:38:04.660Z,20.08
2023-04-05T07:43:07.476Z,20.19
2023-04-05T07:48:10.219Z,20.27
2023-04-05T07:53:14.431Z,20.32
2023-04-05T07:58:17.604Z,20.35
2023-04-05T08:03:20.719Z,20.39
2023-04-05T08:08:26.184Z,20.42
2023-04-05T08:13:29.119Z,20.43
2023-04-05T08:18:31.887Z,20.45
2023-04-05T08:23:36.067Z,20.47
2023-04-05T08:28:38.814Z,20.49
2023-04-05T08:33:41.572Z,20.52
2023-04-05T08:38:45.804Z,20.51
2023-04-05T08:43:56.845Z,20.50
2023-04-05T08:49:00.648Z,20.48
2023-04-05T08:54:05.624Z,20.48
2023-04-05T08:59:11.098Z,20.48
2023-04-05T09:04:19.149Z,20.48
2023-04-05T09:09:24.330Z,20.48
2023-04-05T09:14:28.972Z,20.48
2023-04-05T09:19:31.996Z,20.48
2023-04-05T09:24:41.038Z,20.49
2023-04-05T09:29:45.552Z,20.49
2023-04-05T09:34:49.565Z,20.50
2023-04-05T09:40:07.008Z,20.51
2023-04-05T09:45:10.579Z,20.50
2023-04-05T09:50:21.676Z,20.50
2023-04-05T09:55:30.137Z,20.49
2023-04-05T10:00:33.949Z,20.50
2023-04-05T10:05:37.042Z,20.50
2023-04-05T10:10:48.524Z,20.47
2023-04-05T10:15:53.878Z,20.50
2023-04-05T10:20:59.303Z,20.50
2023-04-05T10:26:11.165Z,20.52
2023-04-05T10:31:36.396Z,20.50
2023-04-05T10:36:46.881Z,20.54
2023-04-05T10:41:57.770Z,20.56
2023-04-05T10:47:03.086Z,20.59
2023-04-05T10:52:07.571Z,20.66
2023-04-05T10:57:12.518Z,20.68
2023-04-05T11:02:16.491Z,19.45
2023-04-05T11:07:20.347Z,18.30
2023-04-05T11:12:56.734Z,19.40
2023-04-05T11:18:12.770Z,20.00
2023-04-05T11:23:17.339Z,20.22
2023-04-05T11:28:29.322Z,20.34
2023-04-05T11:33:56.912Z,20.47
2023-04-05T11:39:28.800Z,20.57
2023-04-05T11:44:41.573Z,20.65
2023-04-05T11:49:50.951Z,20.70
2023-04-05T11:54:53.726Z,20.74
2023-04-05T11:59:56.702Z,20.78
2023-04-05T12:05:01.256Z,20.82
2023-04-05T12:10:08.552Z,20.86
2023-04-05T12:15:14.415Z,20.89
2023-04-05T12:20:21.798Z,20.92
2023-04-05T12:25:25.831Z,20.93
2023-04-05T12:30:36.142Z,20.95
2023-04-05T12:35:40.598Z,20.97
2023-04-05T12:40:43.711Z,20.98
2023-04-05T12:45:46.770Z,21.01
2023-04-05T12:50:53.679Z,21.04
2023-04-05T12:55:57.650Z,21.06
2023-04-05T13:01:00.546Z,21.08
2023-04-05T13:06:04.891Z,21.10
2023-04-05T13:11:07.790Z,21.14
2023-04-05T13:16:10.673Z,21.34
2023-04-05T13:21:14.902Z,21.57
2023-04-05T13:26:17.673Z,21.54
2023-04-05T13:31:20.553Z,21.59
2023-04-05T13:36:24.721Z,21.65
2023-04-05T13:41:27.603Z,21.70
2023-04-05T13:46:31.043Z,21.78
2023-04-05T13:51:36.812Z,21.81
2023-04-05T13:56:39.809Z,21.88
2023-04-05T14:01:49.330Z,21.89
2023-04-05T14:06:58.070Z,21.90
2023-04-05T14:12:02.637Z,21.88
2023-04-05T14:17:07.795Z,21.91
2023-04-05T14:22:12.128Z,21.85
2023-04-05T14:27:15.095Z,22.05
2023-04-05T14:32:18.120Z,22.22
2023-04-05T14:37:22.418Z,22.30
2023-04-05T14:42:34.142Z,22.20
2023-04-05T14:47:44.368Z,22.28
2023-04-05T14:52:48.932Z,22.25
2023-04-05T14:57:51.921Z,22.23
2023-04-05T15:02:55.372Z,22.21
2023-04-05T15:07:59.923Z,22.25
2023-04-05T15:18:07.828Z,22.15
2023-04-05T15:23:12.291Z,22.09
2023-04-05T15:28:15.272Z,22.11
2023-04-05T15:33:18.393Z,22.12
2023-04-05T15:38:23.086Z,22.12
2023-04-05T15:43:26.605Z,22.11
2023-04-05T15:48:29.560Z,22.08
2023-04-05T15:53:33.915Z,22.04
2023-04-05T15:58:37.436Z,22.06
2023-04-05T16:03:40.678Z,22.06
2023-04-05T16:08:45.025Z,22.01
2023-04-05T16:13:48.147Z,22.00
2023-04-05T16:18:51.262Z,21.96
2023-04-05T16:23:57.177Z,21.93
2023-04-05T16:29:00.699Z,21.91
2023-04-05T16:34:03.945Z,21.91
2023-04-05T16:39:08.761Z,21.93
2023-04-05T16:44:11.859Z,21.95
2023-04-05T16:49:15.792Z,21.96
2023-04-05T16:54:20.282Z,21.95
2023-04-05T16:59:23.266Z,21.91
2023-04-05T17:04:26.277Z,21.90
2023-04-05T17:09:30.755Z,21.92
2023-04-05T17:14:33.566Z,21.89
2023-04-05T17:19:36.388Z,21.88
2023-04-05T17:24:41.438Z,21.88
2023-04-05T17:29:44.474Z,21.93
2023-04-05T17:34:47.385Z,22.00
2023-04-05T17:39:51.674Z,21.93
2023-04-05T17:44:56.583Z,21.91
2023-04-05T17:49:59.749Z,21.97
2023-04-05T17:55:04.247Z,21.95
2023-04-05T18:00:08.650Z,21.89
2023-04-05T18:05:11.898Z,21.87
2023-04-05T18:14:04.274Z,21.87
2023-04-05T18:19:07.751Z,21.95
2023-04-05T18:24:11.984Z,21.87
2023-04-05T18:29:16.321Z,21.91
2023-04-05T18:34:19.250Z,21.77
2023-04-05T18:39:25.021Z,21.74
2023-04-05T18:44:30.826Z,21.78
2023-04-05T18:49:34.574Z,21.86
2023-04-05T18:54:39.759Z,21.90
2023-04-05T18:59:44.520Z,21.93
2023-04-05T19:04:47.495Z,21.99
2023-04-05T19:09:50.419Z,22.00
2023-04-05T19:14:54.780Z,21.99
2023-04-05T19:19:57.849Z,22.27
2023-04-05T19:25:01.177Z,22.28
2023-04-05T19:30:06.929Z,22.34
2023-04-05T19:35:10.528Z,22.38
2023-04-05T19:40:13.600Z,22.41
2023-04-05T19:45:25.281Z,22.41
2023-04-05T19:50:48.388Z,22.44
2023-04-05T19:55:51.324Z,22.49
2023-04-05T20:00:55.578Z,22.47
2023-04-05T20:06:03.549Z,22.51
2023-04-05T20:11:09.000Z,22.51
2023-04-05T20:16:14.594Z,22.52
2023-04-05T20:21:17.735Z,22.52
2023-04-05T20:26:26.374Z,22.47
2023-04-05T20:31:32.532Z,22.55
2023-04-05T20:36:37.722Z,22.59
2023-04-05T20:41:40.726Z,22.56
2023-04-05T20:46:45.085Z,22.58
2023-04-05T20:51:50.397Z,22.57
2023-04-05T20:56:53.331Z,22.61
2023-04-05T21:01:57.839Z,22.60
2023-04-05T21:07:00.764Z,22.66
2023-04-05T21:12:04.064Z,22.65
2023-04-05T21:17:08.341Z,22.68
2023-04-05T21:22:11.247Z,22.71
2023-04-05T21:27:14.148Z,22.74
2023-04-05T21:32:18.393Z,22.71
2023-04-05T21:37:21.346Z,22.72
2023-04-05T21:42:24.347Z,22.70
2023-04-05T21:47:28.576Z,22.69
2023-04-05T21:52:31.587Z,22.68
2023-04-05T21:57:34.599Z,22.64
2023-04-05T22:02:39.275Z,22.63
2023-04-05T22:07:42.209Z,22.61
2023-04-05T22:12:45.373Z,22.59
2023-04-05T22:17:49.697Z,22.56
2023-04-05T22:22:52.875Z,22.54
2023-04-05T22:27:59.760Z,22.51
2023-04-05T22:33:04.401Z,22.51
2023-04-05T22:38:07.342Z,22.50
2023-04-05T22:43:11.742Z,22.44
2023-04-05T22:48:16.026Z,22.39
2023-04-05T22:53:19.006Z,22.33
2023-04-05T22:58:22.483Z,22.27
2023-04-05T23:03:26.791Z,22.23
2023-04-05T23:08:29.853Z,22.18
2023-04-05T23:13:32.744Z,22.12
2023-04-05T23:18:36.974Z,22.06
2023-04-05T23:23:39.864Z,22.03
2023-04-05T23:28:42.730Z,21.99
2023-04-05T23:33:46.955Z,21.96
2023-04-05T23:38:49.862Z,21.90
2023-04-05T23:43:52.916Z,21.85
2023-04-05T23:48:57.308Z,21.80
2023-04-05T23:54:00.356Z,21.76
2023-04-05T23:59:03.295Z,21.74
